Soesterberg, Nederland

7:22 PM CEST op 25 mei 2015 (GMT +0200)
Van der Griendtlaan | | Change Station
CLOSE
Current Station
Persoonlijk weerstation
Location: Soesterberg, UTRECHT
Geometrische hoogte: 56 ft
Nabije weerstations

Hoogte 56 ft 52.12 °N, 5.28 °E | Updated 0 second ago

Mostly Cloudy
Merendeels bewolkt
55.7 °F
Voelt als 55.7 °F
N
5.0
Wind Variabel Wind van noord
Gusts 15.0 mijl/u

Vandaag
Hoog -- | Laag -- °F
--% Kans op neerslag
Gisteren
Hoog -- | Laag -- °F
Precip. -- inches
5:31 AM 9:40 PM
Wassende halvemaan, 50% visible
Druk 30.04 inches
Zicht 6.2 mijlen
Wolken Gering 2300 ft
Licht bewolkt 3500 ft
Merendeels bewolkt 4600 ft
Dauwpunt 41 °F
Vochtigheid 57%
Neerslag 0.02 inches
Dikte sneeuw Niet beschikbaar.
UV 1 van de 12
Pollen Niet beschikbaar.
Luchtkwaliteit Niet beschikbaar.
Flu Activity Niet beschikbaar.
METAR EHAM 251655Z 31011KT 9999 FEW023 SCT035 BKN046 11/06 Q1017 NOSIG

More Conditions Fewer Conditions

Druk 30.04 inches
Zicht 6.2 mijlen
Wolken Gering 2300 ft
Licht bewolkt 3500 ft
Merendeels bewolkt 4600 ft
Dauwpunt 41 °F
Vochtigheid 57%
Neerslag 0.02 inches
Dikte sneeuw Niet beschikbaar.
UV 1 van de 12
Pollen Niet beschikbaar.
Luchtkwaliteit Niet beschikbaar.
Flu Activity Niet beschikbaar.
METAR EHAM 251655Z 31011KT 9999 FEW023 SCT035 BKN046 11/06 Q1017 NOSIG

More Conditions Fewer Conditions

10-Day Weather Forecast

Almanac

Astronomie

May. 25, 2015 Opkomst Ondergang
Werkelijke tijd
Burgerlijke schemering
Nautische schemering
Astronomische schemering
Maan
Golflengte van het zichtbare licht
Daglengte
Tomorrow will be .
, % of the Moon is Illuminated

Extremen vandaag

Country Highs Country Lows

Community

WunderPhotos

Upload Photos

1,824,067 foto’s ge-upload!

WunderBlogs® & News

Nearby

Luchtkwaliteit

  Luchtkwaliteit LK-index Verontreinigende stof
Not available.

Dikte sneeuw

Station Depth Geometrische hoogte

Aardbevingen

Stad Distance Mag. Time & Date
Minimum magnitude displayed is 2.5.

Watertemperatuur langs de kust

Plaats Temperatuur

Stations

Nabije weerstations

Locatie station Temp. Gevoelstemperatuur Dauwpunt Vochtigheid Wind Precip. Hoogte Geactualiseerd Type